createdAt,value
2023-02-27T00:01:24.595Z,79.64
2023-02-27T00:03:51.331Z,79.63
2023-02-27T00:06:20.326Z,79.57
2023-02-27T00:08:48.296Z,79.76
2023-02-27T00:11:17.059Z,79.91
2023-02-27T00:13:46.905Z,80.00
2023-02-27T00:16:14.025Z,80.27
2023-02-27T00:18:40.653Z,80.19
2023-02-27T00:21:12.859Z,80.42
2023-02-27T00:23:40.376Z,80.39
2023-02-27T00:26:06.855Z,80.60
2023-02-27T00:28:33.415Z,80.76
2023-02-27T00:30:59.960Z,80.88
2023-02-27T00:33:26.456Z,81.30
2023-02-27T00:36:03.647Z,81.39
2023-02-27T00:38:32.536Z,81.57
2023-02-27T00:40:59.344Z,81.61
2023-02-27T00:43:30.331Z,81.98
2023-02-27T00:45:56.862Z,82.23
2023-02-27T00:48:27.638Z,82.40
2023-02-27T00:50:56.475Z,82.56
2023-02-27T00:53:26.072Z,82.64
2023-02-27T00:55:59.744Z,82.54
2023-02-27T00:58:26.172Z,82.84
2023-02-27T01:00:52.713Z,82.89
2023-02-27T01:03:19.421Z,82.94
2023-02-27T01:05:46.165Z,83.27
2023-02-27T01:08:14.929Z,83.48
2023-02-27T01:10:43.732Z,83.44
2023-02-27T01:13:11.274Z,83.67
2023-02-27T01:15:40.612Z,83.80
2023-02-27T01:18:07.074Z,83.96
2023-02-27T01:20:33.947Z,83.95
2023-02-27T01:23:00.487Z,83.94
2023-02-27T01:25:27.023Z,84.23
2023-02-27T01:27:53.492Z,84.31
2023-02-27T01:30:20.035Z,84.55
2023-02-27T01:32:46.638Z,84.21
2023-02-27T01:35:13.221Z,84.37
2023-02-27T01:37:39.811Z,84.30
2023-02-27T01:40:08.355Z,84.42
2023-02-27T01:42:34.766Z,84.45
2023-02-27T01:45:33.642Z,84.44
2023-02-27T01:48:37.240Z,84.71
2023-02-27T01:51:22.212Z,85.05
2023-02-27T01:53:52.286Z,85.07
2023-02-27T01:56:26.214Z,85.20
2023-02-27T01:58:57.683Z,85.22
2023-02-27T02:01:24.953Z,85.33
2023-02-27T02:04:17.815Z,85.17
2023-02-27T02:06:49.094Z,85.27
2023-02-27T02:09:18.489Z,85.21
2023-02-27T02:11:45.035Z,85.17
2023-02-27T02:14:13.770Z,85.04
2023-02-27T02:16:43.214Z,85.37
2023-02-27T02:19:29.232Z,85.34
2023-02-27T02:22:16.202Z,85.23
2023-02-27T02:25:15.366Z,85.29
2023-02-27T02:28:10.172Z,85.28
2023-02-27T02:30:55.094Z,85.31
2023-02-27T02:33:40.916Z,85.14
2023-02-27T02:37:09.665Z,85.48
2023-02-27T02:39:59.372Z,85.29
2023-02-27T02:42:34.613Z,85.16
2023-02-27T02:45:22.011Z,85.20
2023-02-27T02:48:13.477Z,85.16
2023-02-27T02:50:50.155Z,85.30
2023-02-27T02:53:37.391Z,85.38
2023-02-27T02:56:20.649Z,85.51
2023-02-27T02:58:55.990Z,85.86
2023-02-27T03:01:30.697Z,85.85
2023-02-27T03:04:05.921Z,86.01
2023-02-27T03:06:47.553Z,86.17
2023-02-27T03:09:26.713Z,86.53
2023-02-27T03:11:55.188Z,86.55
2023-02-27T03:14:42.183Z,86.52
2023-02-27T03:17:22.580Z,86.65
2023-02-27T03:20:08.604Z,86.79
2023-02-27T03:22:40.235Z,86.88
2023-02-27T03:25:10.699Z,86.73
2023-02-27T03:27:44.661Z,87.05
2023-02-27T03:30:34.160Z,87.08
2023-02-27T03:33:22.116Z,87.30
2023-02-27T03:36:01.091Z,87.26
2023-02-27T03:38:41.162Z,87.29
2023-02-27T03:41:29.147Z,87.66
2023-02-27T03:44:12.893Z,87.42
2023-02-27T03:46:41.173Z,87.49
2023-02-27T03:49:11.043Z,87.95
2023-02-27T03:51:37.576Z,87.83
2023-02-27T03:54:10.610Z,87.83
2023-02-27T03:57:07.494Z,88.12
2023-02-27T03:59:36.036Z,88.28
2023-02-27T04:02:03.073Z,88.07
2023-02-27T04:04:32.739Z,88.33
2023-02-27T04:07:32.063Z,88.42
2023-02-27T04:10:30.400Z,88.48
2023-02-27T04:13:04.124Z,88.52
2023-02-27T04:15:31.427Z,88.62
2023-02-27T04:18:35.413Z,88.78
2023-02-27T04:21:15.433Z,88.90
2023-02-27T04:23:54.913Z,88.97
2023-02-27T04:26:39.431Z,88.92
2023-02-27T04:29:08.083Z,89.24
2023-02-27T04:32:01.645Z,89.49
2023-02-27T04:34:45.468Z,89.65
2023-02-27T04:37:17.713Z,89.78
2023-02-27T04:40:00.704Z,89.68
2023-02-27T04:42:32.318Z,89.78
2023-02-27T04:45:04.384Z,89.65
2023-02-27T04:47:36.646Z,89.87
2023-02-27T04:50:19.932Z,89.75
2023-02-27T04:53:02.438Z,89.59
2023-02-27T04:55:41.736Z,89.58
2023-02-27T04:58:15.535Z,89.59
2023-02-27T05:00:48.136Z,89.69
2023-02-27T05:03:22.186Z,89.77
2023-02-27T05:05:51.220Z,89.80
2023-02-27T05:08:43.373Z,89.80
2023-02-27T05:11:29.937Z,89.99
2023-02-27T05:14:08.362Z,89.99
2023-02-27T05:16:51.572Z,89.65
2023-02-27T05:19:20.648Z,89.79
2023-02-27T05:21:54.507Z,89.71
2023-02-27T05:24:37.629Z,89.89
2023-02-27T05:27:19.171Z,89.88
2023-02-27T05:29:51.928Z,89.80
2023-02-27T05:32:27.732Z,89.97
2023-02-27T05:35:25.523Z,90.06
2023-02-27T05:38:01.321Z,90.24
2023-02-27T05:40:46.792Z,90.56
2023-02-27T05:43:23.813Z,90.36
2023-02-27T05:45:56.508Z,90.53
2023-02-27T05:48:33.044Z,90.41
2023-02-27T05:51:03.829Z,90.44
2023-02-27T05:53:35.584Z,90.41
2023-02-27T05:56:06.470Z,90.51
2023-02-27T05:58:39.036Z,90.58
2023-02-27T06:01:10.780Z,90.56
2023-02-27T06:03:42.537Z,90.49
2023-02-27T06:06:16.334Z,90.45
2023-02-27T06:08:43.588Z,90.49
2023-02-27T06:11:13.342Z,90.34
2023-02-27T06:13:41.943Z,90.28
2023-02-27T06:16:11.109Z,90.60
2023-02-27T06:18:42.443Z,90.65
2023-02-27T06:21:14.740Z,90.39
2023-02-27T06:23:46.067Z,90.53
2023-02-27T06:26:14.242Z,90.44
2023-02-27T06:28:53.370Z,90.57
2023-02-27T06:31:24.651Z,90.35
2023-02-27T06:33:51.197Z,90.49
2023-02-27T06:36:19.938Z,90.72
2023-02-27T06:38:48.937Z,90.56
2023-02-27T06:41:18.308Z,90.49
2023-02-27T06:43:44.821Z,90.54
2023-02-27T06:46:11.374Z,90.21
2023-02-27T06:48:38.057Z,90.27
2023-02-27T06:51:04.948Z,90.17
2023-02-27T06:53:34.782Z,90.10
2023-02-27T06:56:03.615Z,89.91
2023-02-27T06:58:32.429Z,89.65
2023-02-27T07:01:01.436Z,89.64
2023-02-27T07:03:28.119Z,89.74
2023-02-27T07:05:56.982Z,89.77
2023-02-27T07:08:25.635Z,89.59
2023-02-27T07:10:52.094Z,89.55
2023-02-27T07:13:21.134Z,88.70
2023-02-27T07:15:47.689Z,88.68
2023-02-27T07:18:14.272Z,88.22
2023-02-27T07:20:41.254Z,87.88
2023-02-27T07:23:10.654Z,87.68
2023-02-27T07:25:37.195Z,87.35
2023-02-27T07:28:05.075Z,87.14
2023-02-27T07:30:31.645Z,87.10
2023-02-27T07:33:00.541Z,86.86
2023-02-27T07:35:27.620Z,86.45
2023-02-27T07:37:54.168Z,85.93
2023-02-27T07:40:20.964Z,85.52
2023-02-27T07:42:49.731Z,85.12
2023-02-27T07:45:23.456Z,84.63
2023-02-27T07:47:54.480Z,84.79
2023-02-27T07:50:23.707Z,84.75
2023-02-27T07:52:52.037Z,84.78
2023-02-27T07:55:20.955Z,84.50
2023-02-27T07:57:49.852Z,84.50
2023-02-27T08:00:17.019Z,84.41
2023-02-27T08:02:45.686Z,84.25
2023-02-27T08:05:15.116Z,83.96
2023-02-27T08:07:44.751Z,82.81
2023-02-27T08:10:16.146Z,79.28
2023-02-27T08:12:46.083Z,76.99
2023-02-27T08:15:12.838Z,75.68
2023-02-27T08:17:41.544Z,71.99
2023-02-27T08:20:11.296Z,68.76
2023-02-27T08:22:42.627Z,67.43
2023-02-27T08:25:14.206Z,65.21
2023-02-27T08:27:40.732Z,63.66
2023-02-27T08:30:10.143Z,61.89
2023-02-27T08:32:37.285Z,61.41
2023-02-27T08:35:06.088Z,60.29
2023-02-27T08:37:32.575Z,59.63
2023-02-27T08:40:00.564Z,57.79
2023-02-27T08:42:30.497Z,58.20
2023-02-27T08:45:01.922Z,58.08
2023-02-27T08:47:28.446Z,58.26
2023-02-27T08:49:58.419Z,58.83
2023-02-27T08:52:28.367Z,58.95
2023-02-27T08:54:54.878Z,59.45
2023-02-27T08:57:21.982Z,59.34
2023-02-27T08:59:51.097Z,58.67
2023-02-27T09:02:23.502Z,59.31
2023-02-27T09:04:55.141Z,58.94
2023-02-27T09:07:21.716Z,58.96
2023-02-27T09:09:50.027Z,57.97
2023-02-27T09:12:16.915Z,57.20
2023-02-27T09:14:45.890Z,56.52
2023-02-27T09:17:14.862Z,55.71
2023-02-27T09:19:46.159Z,55.48
2023-02-27T09:22:14.299Z,53.79
2023-02-27T09:24:40.760Z,54.35
2023-02-27T09:27:09.695Z,54.26
2023-02-27T09:29:36.467Z,52.81
2023-02-27T09:32:05.361Z,53.97
2023-02-27T09:34:34.526Z,52.37
2023-02-27T09:37:01.863Z,50.25
2023-02-27T09:39:33.178Z,51.41
2023-02-27T09:42:04.872Z,50.91
2023-02-27T09:44:47.612Z,49.88
2023-02-27T09:47:19.318Z,49.17
2023-02-27T09:50:06.916Z,48.25
2023-02-27T09:52:40.178Z,48.40
2023-02-27T09:55:15.364Z,48.45
2023-02-27T09:57:49.825Z,49.00
2023-02-27T10:00:38.561Z,50.27
2023-02-27T10:03:21.456Z,52.00
2023-02-27T10:06:07.460Z,52.18
2023-02-27T10:08:52.259Z,52.44
2023-02-27T10:11:32.826Z,51.60
2023-02-27T10:14:13.438Z,52.65
2023-02-27T10:16:42.480Z,53.21
2023-02-27T10:19:23.405Z,51.74
2023-02-27T10:21:54.302Z,53.14
2023-02-27T10:24:32.682Z,52.26
2023-02-27T10:27:05.794Z,54.02
2023-02-27T10:29:39.813Z,51.65
2023-02-27T10:32:21.644Z,52.07
2023-02-27T10:34:58.843Z,52.25
2023-02-27T10:37:27.479Z,49.24
2023-02-27T10:40:00.555Z,48.53
2023-02-27T10:42:31.998Z,47.49
2023-02-27T10:45:03.680Z,45.54
2023-02-27T10:47:33.286Z,45.00
2023-02-27T10:50:03.539Z,46.30
2023-02-27T10:52:31.096Z,46.70
2023-02-27T10:55:22.786Z,47.66
2023-02-27T10:57:49.686Z,46.97
2023-02-27T11:00:45.975Z,47.15
2023-02-27T11:03:22.700Z,47.24
2023-02-27T11:05:57.321Z,47.65
2023-02-27T11:08:28.096Z,46.89
2023-02-27T11:10:59.981Z,46.13
2023-02-27T11:13:29.327Z,46.17
2023-02-27T11:16:12.668Z,46.75
2023-02-27T11:18:41.529Z,48.27
2023-02-27T11:21:24.171Z,48.91
2023-02-27T11:23:56.884Z,47.08
2023-02-27T11:26:59.124Z,46.61
2023-02-27T11:29:26.436Z,47.12
2023-02-27T11:31:53.010Z,46.71
2023-02-27T11:34:31.425Z,45.67
2023-02-27T11:37:07.315Z,45.48
2023-02-27T11:39:47.723Z,45.71
2023-02-27T11:42:26.817Z,47.68
2023-02-27T11:45:00.385Z,44.86
2023-02-27T11:47:44.129Z,44.97
2023-02-27T11:50:10.694Z,46.02
2023-02-27T11:52:50.709Z,43.45
2023-02-27T11:55:25.762Z,43.49
2023-02-27T11:58:04.683Z,46.04
2023-02-27T12:00:39.132Z,44.37
2023-02-27T12:03:27.106Z,44.84
2023-02-27T12:05:59.474Z,44.27
2023-02-27T12:08:44.134Z,43.67
2023-02-27T12:11:22.166Z,43.07
2023-02-27T12:13:59.144Z,43.18
2023-02-27T12:16:34.776Z,43.32
2023-02-27T12:19:19.249Z,42.58
2023-02-27T12:21:56.855Z,43.49
2023-02-27T12:24:55.900Z,44.72
2023-02-27T12:27:29.320Z,45.49
2023-02-27T12:30:07.764Z,44.65
2023-02-27T12:33:03.747Z,43.86
2023-02-27T12:35:33.353Z,43.79
2023-02-27T12:38:02.850Z,44.09
2023-02-27T12:40:50.910Z,43.94
2023-02-27T12:43:23.436Z,44.42
2023-02-27T12:46:05.150Z,44.87
2023-02-27T12:49:17.162Z,45.83
2023-02-27T12:51:51.286Z,46.82
2023-02-27T12:54:46.636Z,47.87
2023-02-27T12:57:41.138Z,48.49
2023-02-27T13:00:11.265Z,48.64
2023-02-27T13:02:59.327Z,48.73
2023-02-27T13:05:37.378Z,49.13
2023-02-27T13:08:25.481Z,50.10
2023-02-27T13:10:59.004Z,50.70
2023-02-27T13:13:39.624Z,51.15
2023-02-27T13:16:12.673Z,51.39
2023-02-27T13:18:54.115Z,50.10
2023-02-27T13:21:51.568Z,49.74
2023-02-27T13:24:25.822Z,49.29
2023-02-27T13:27:33.464Z,50.33
2023-02-27T13:30:02.953Z,51.79
2023-02-27T13:32:51.149Z,51.94
2023-02-27T13:35:41.763Z,52.65
2023-02-27T13:38:30.101Z,52.66
2023-02-27T13:41:29.666Z,51.96
2023-02-27T13:43:58.588Z,52.31
2023-02-27T13:46:37.045Z,52.68
2023-02-27T13:49:10.725Z,53.04
2023-02-27T13:51:46.817Z,51.28
2023-02-27T13:54:13.290Z,50.24
2023-02-27T13:56:45.746Z,48.90
2023-02-27T13:59:23.735Z,48.66
2023-02-27T14:02:02.123Z,50.30
2023-02-27T14:04:32.979Z,49.83
2023-02-27T14:07:09.129Z,50.01
2023-02-27T14:09:39.848Z,50.82
2023-02-27T14:12:42.774Z,49.45
2023-02-27T14:15:24.929Z,49.89
2023-02-27T14:18:14.168Z,50.00
2023-02-27T14:20:52.342Z,50.07
2023-02-27T14:23:25.006Z,49.30
2023-02-27T14:25:56.760Z,49.33
2023-02-27T14:28:44.825Z,49.55
2023-02-27T14:31:32.293Z,49.89
2023-02-27T14:34:05.330Z,48.59
2023-02-27T14:36:42.708Z,47.93
2023-02-27T14:39:29.688Z,48.60
2023-02-27T14:42:41.791Z,48.23
2023-02-27T14:45:20.727Z,49.64
2023-02-27T14:47:51.967Z,50.78
2023-02-27T14:50:29.091Z,51.23
2023-02-27T14:52:55.735Z,50.89
2023-02-27T14:55:30.194Z,51.21
2023-02-27T14:58:19.748Z,51.98
2023-02-27T15:00:50.677Z,51.03
2023-02-27T15:03:18.869Z,51.51
2023-02-27T15:05:47.607Z,51.52
2023-02-27T15:08:24.036Z,50.86
2023-02-27T15:10:55.137Z,51.21
2023-02-27T15:13:32.138Z,50.07
2023-02-27T15:16:23.518Z,49.77
2023-02-27T15:18:53.079Z,50.06
2023-02-27T15:21:22.601Z,50.60
2023-02-27T15:23:55.133Z,50.93
2023-02-27T15:26:21.976Z,51.08
2023-02-27T15:28:51.036Z,51.57
2023-02-27T15:31:24.054Z,51.43
2023-02-27T15:33:53.941Z,51.60
2023-02-27T15:36:25.953Z,52.05
2023-02-27T15:39:18.230Z,52.60
2023-02-27T15:41:49.480Z,51.91
2023-02-27T15:44:18.663Z,52.25
2023-02-27T15:46:46.719Z,51.79
2023-02-27T15:49:20.746Z,51.87
2023-02-27T15:52:05.531Z,51.79
2023-02-27T15:54:33.963Z,51.65
2023-02-27T15:57:04.857Z,52.43
2023-02-27T15:59:38.232Z,52.66
2023-02-27T16:02:13.929Z,53.02
2023-02-27T16:04:40.501Z,53.15
2023-02-27T16:07:15.669Z,53.77
2023-02-27T16:09:46.637Z,54.02
2023-02-27T16:12:27.809Z,54.19
2023-02-27T16:15:23.339Z,54.18
2023-02-27T16:17:58.090Z,54.42
2023-02-27T16:20:39.538Z,54.03
2023-02-27T16:23:28.186Z,54.39
2023-02-27T16:26:11.099Z,54.63
2023-02-27T16:29:02.585Z,55.12
2023-02-27T16:31:33.699Z,55.04
2023-02-27T16:34:15.770Z,55.34
2023-02-27T16:36:54.158Z,55.68
2023-02-27T16:39:20.670Z,55.82
2023-02-27T16:41:51.864Z,56.09
2023-02-27T16:44:18.429Z,56.26
2023-02-27T16:46:50.777Z,56.01
2023-02-27T16:49:26.672Z,56.48
2023-02-27T16:51:55.984Z,56.63
2023-02-27T16:54:25.875Z,57.00
2023-02-27T16:56:54.778Z,57.28
2023-02-27T16:59:28.886Z,57.35
2023-02-27T17:01:56.853Z,57.66
2023-02-27T17:04:26.435Z,58.00
2023-02-27T17:06:54.583Z,58.35
2023-02-27T17:09:24.216Z,58.44
2023-02-27T17:11:50.688Z,58.64
2023-02-27T17:14:17.299Z,58.94
2023-02-27T17:16:44.481Z,59.18
2023-02-27T17:19:11.036Z,59.47
2023-02-27T17:21:37.875Z,59.84
2023-02-27T17:24:07.340Z,59.93
2023-02-27T17:26:37.373Z,60.21
2023-02-27T17:29:06.312Z,60.63
2023-02-27T17:31:35.491Z,60.83
2023-02-27T17:34:08.794Z,60.92
2023-02-27T17:36:36.186Z,61.23
2023-02-27T17:39:07.909Z,61.52
2023-02-27T17:41:36.681Z,61.73
2023-02-27T17:44:03.499Z,62.12
2023-02-27T17:46:33.210Z,62.37
2023-02-27T17:49:00.610Z,62.53
2023-02-27T17:51:31.546Z,62.88
2023-02-27T17:54:01.692Z,63.08
2023-02-27T17:56:28.864Z,63.22
2023-02-27T17:59:00.150Z,63.62
2023-02-27T18:01:29.241Z,63.63
2023-02-27T18:03:56.198Z,63.75
2023-02-27T18:06:24.282Z,64.00
2023-02-27T18:08:51.091Z,64.05
2023-02-27T18:11:19.865Z,64.41
2023-02-27T18:13:47.151Z,64.65
2023-02-27T18:16:14.567Z,64.95
2023-02-27T18:18:42.740Z,65.31
2023-02-27T18:21:15.603Z,65.76
2023-02-27T18:23:43.661Z,65.74
2023-02-27T18:26:28.452Z,65.81
2023-02-27T18:29:01.959Z,65.85
2023-02-27T18:31:32.784Z,66.00
2023-02-27T18:34:00.708Z,66.27
2023-02-27T18:36:28.449Z,66.33
2023-02-27T18:38:55.194Z,66.55
2023-02-27T18:41:21.761Z,66.66
2023-02-27T18:43:48.331Z,66.92
2023-02-27T18:46:15.029Z,67.17
2023-02-27T18:48:43.806Z,67.33
2023-02-27T18:51:14.331Z,67.47
2023-02-27T18:53:47.972Z,67.68
2023-02-27T18:56:19.395Z,67.95
2023-02-27T18:58:49.028Z,68.05
2023-02-27T19:01:20.518Z,68.47
2023-02-27T19:03:47.092Z,68.72
2023-02-27T19:06:13.750Z,68.64
2023-02-27T19:08:40.284Z,69.04
2023-02-27T19:11:06.831Z,69.15
2023-02-27T19:13:33.312Z,69.77
2023-02-27T19:16:04.719Z,69.89
2023-02-27T19:18:33.788Z,70.05
2023-02-27T19:21:05.802Z,70.30
2023-02-27T19:23:32.341Z,70.59
2023-02-27T19:26:02.607Z,70.78
2023-02-27T19:28:29.138Z,70.65
2023-02-27T19:30:55.817Z,71.12
2023-02-27T19:33:27.491Z,71.28
2023-02-27T19:35:54.048Z,71.24
2023-02-27T19:38:20.704Z,71.54
2023-02-27T19:40:54.337Z,71.45
2023-02-27T19:43:21.234Z,71.87
2023-02-27T19:45:50.151Z,72.03
2023-02-27T19:48:19.675Z,72.37
2023-02-27T19:50:46.554Z,72.73
2023-02-27T19:53:15.288Z,72.68
2023-02-27T19:55:41.960Z,73.17
2023-02-27T19:58:08.442Z,73.17
2023-02-27T20:00:37.411Z,73.38
2023-02-27T20:03:08.783Z,73.39
2023-02-27T20:05:39.065Z,73.62
2023-02-27T20:08:06.861Z,73.74
2023-02-27T20:10:33.470Z,74.11
2023-02-27T20:12:59.971Z,74.25
2023-02-27T20:15:31.248Z,74.35
2023-02-27T20:17:57.707Z,74.68
2023-02-27T20:20:24.314Z,74.84
2023-02-27T20:22:52.456Z,75.24
2023-02-27T20:25:18.953Z,75.15
2023-02-27T20:27:47.663Z,75.49
2023-02-27T20:30:16.551Z,75.51
2023-02-27T20:32:46.127Z,75.85
2023-02-27T20:35:12.694Z,76.00
2023-02-27T20:37:41.983Z,76.08
2023-02-27T20:40:14.130Z,76.10
2023-02-27T20:42:42.080Z,76.47
2023-02-27T20:45:08.775Z,76.52
2023-02-27T20:47:35.234Z,76.95
2023-02-27T20:50:02.192Z,77.00
2023-02-27T20:52:30.775Z,77.25
2023-02-27T20:54:57.303Z,77.53
2023-02-27T20:57:24.867Z,77.97
2023-02-27T20:59:54.257Z,78.07
2023-02-27T21:02:22.973Z,77.93
2023-02-27T21:04:50.742Z,78.05
2023-02-27T21:07:24.202Z,78.37
2023-02-27T21:09:50.809Z,78.63
2023-02-27T21:12:17.821Z,78.72
2023-02-27T21:14:45.197Z,78.85
2023-02-27T21:17:16.246Z,79.13
2023-02-27T21:19:45.087Z,79.10
2023-02-27T21:22:14.294Z,79.23
2023-02-27T21:24:43.224Z,79.53
2023-02-27T21:27:09.777Z,79.64
2023-02-27T21:29:38.606Z,79.72
2023-02-27T21:32:08.363Z,79.83
2023-02-27T21:34:35.061Z,79.98
2023-02-27T21:37:09.512Z,79.94
2023-02-27T21:39:41.164Z,80.12
2023-02-27T21:42:07.611Z,80.31
2023-02-27T21:44:34.212Z,80.28
2023-02-27T21:47:09.838Z,80.53
2023-02-27T21:49:36.866Z,80.46
2023-02-27T21:52:06.783Z,80.74
2023-02-27T21:54:33.320Z,81.13
2023-02-27T21:57:03.224Z,81.30
2023-02-27T21:59:32.336Z,81.46
2023-02-27T22:02:01.662Z,81.89
2023-02-27T22:04:29.384Z,81.92
2023-02-27T22:06:55.864Z,82.02
2023-02-27T22:09:25.341Z,82.27
2023-02-27T22:11:56.776Z,82.29
2023-02-27T22:14:26.216Z,82.31
2023-02-27T22:16:52.751Z,82.44
2023-02-27T22:19:20.188Z,82.56
2023-02-27T22:21:49.195Z,82.76
2023-02-27T22:24:18.397Z,82.68
2023-02-27T22:26:45.775Z,82.77
2023-02-27T22:29:14.553Z,82.95
2023-02-27T22:31:41.123Z,83.13
2023-02-27T22:34:12.514Z,83.30
2023-02-27T22:36:41.308Z,83.56
2023-02-27T22:39:08.595Z,83.61
2023-02-27T22:41:39.999Z,83.60
2023-02-27T22:44:10.251Z,84.02
2023-02-27T22:46:42.672Z,83.92
2023-02-27T22:49:23.634Z,84.21
2023-02-27T22:51:51.934Z,84.30
2023-02-27T22:54:19.454Z,84.18
2023-02-27T22:56:49.150Z,84.43
2023-02-27T22:59:16.723Z,84.52
2023-02-27T23:01:43.224Z,84.52
2023-02-27T23:04:16.949Z,84.57
2023-02-27T23:06:46.535Z,84.65
2023-02-27T23:09:18.937Z,84.84
2023-02-27T23:11:48.137Z,85.10
2023-02-27T23:14:14.946Z,84.91
2023-02-27T23:16:46.815Z,85.05
2023-02-27T23:19:18.426Z,85.25
2023-02-27T23:21:45.408Z,85.36
2023-02-27T23:24:17.376Z,85.53
2023-02-27T23:26:49.597Z,85.66
2023-02-27T23:29:16.896Z,85.65
2023-02-27T23:31:46.239Z,85.76
2023-02-27T23:34:12.923Z,85.83
2023-02-27T23:36:42.684Z,85.91
2023-02-27T23:39:11.753Z,85.91
2023-02-27T23:41:38.207Z,86.09
2023-02-27T23:44:07.009Z,86.03
2023-02-27T23:46:33.475Z,86.04
2023-02-27T23:49:01.349Z,86.11
2023-02-27T23:51:30.712Z,86.18
2023-02-27T23:53:57.978Z,86.12
2023-02-27T23:56:31.709Z,86.08
2023-02-27T23:59:06.612Z,86.01
